Time,TemperatureF,DewpointF,PressureIn,WindDirection,WindDirectionDegrees,WindSpeedMPH,WindSpeedGustMPH,Humidity,HourlyPrecipIn,Conditions,Clouds,dailyrainin,SoftwareType,DateUTC
2013-08-22 00:05:00,64.3,64.0,29.91,ENE,61,0.0,0.0,99,0.00,,,0.30,Wunderground v.1.15,2013-08-22 04:05:00,
2013-08-22 00:10:00,64.3,64.0,29.91,ENE,61,0.0,0.0,99,0.00,,,0.00,Wunderground v.1.15,2013-08-22 04:10:00,
2013-08-22 00:15:00,64.2,63.9,29.92,ENE,61,0.0,0.0,99,0.00,,,0.00,Wunderground v.1.15,2013-08-22 04:15:00,
2013-08-22 00:20:00,64.2,63.9,29.92,ENE,61,0.0,0.0,99,0.00,,,0.00,Wunderground v.1.15,2013-08-22 04:20:00,
2013-08-22 00:25:00,64.2,63.9,29.92,ENE,61,0.0,0.0,99,0.00,,,0.00,Wunderground v.1.15,2013-08-22 04:25:00,
2013-08-22 00:30:00,64.0,63.7,29.92,ENE,61,0.0,0.0,99,0.00,,,0.00,Wunderground v.1.15,2013-08-22 04:30:00,
2013-08-22 00:35:00,64.0,63.7,29.92,ENE,61,0.0,0.0,99,0.00,,,0.00,Wunderground v.1.15,2013-08-22 04:35:00,
2013-08-22 00:40:00,64.0,63.7,29.92,ENE,61,0.0,0.0,99,0.00,,,0.00,Wunderground v.1.15,2013-08-22 04:40:00,
2013-08-22 00:50:00,63.9,63.6,29.92,ENE,61,0.0,0.0,99,0.00,,,0.00,Wunderground v.1.15,2013-08-22 04:50:00,
2013-08-22 01:00:00,63.7,63.4,29.92,ENE,61,0.0,0.0,99,0.00,,,0.00,Wunderground v.1.15,2013-08-22 05:00:00,
2013-08-22 01:10:00,63.9,63.6,29.92,ENE,61,0.0,0.0,99,0.00,,,0.00,Wunderground v.1.15,2013-08-22 05:10:00,
2013-08-22 01:20:00,63.9,63.9,29.93,ENE,61,0.0,0.0,100,0.00,,,0.00,Wunderground v.1.15,2013-08-22 05:20:00,
2013-08-22 01:30:00,64.0,64.0,29.93,ENE,61,0.0,0.0,100,0.00,,,0.00,Wunderground v.1.15,2013-08-22 05:30:00,
2013-08-22 01:40:00,64.0,64.0,29.93,ENE,61,0.0,0.0,100,0.00,,,0.00,Wunderground v.1.15,2013-08-22 05:40:00,
2013-08-22 01:50:00,64.0,64.0,29.92,ENE,61,0.0,0.0,100,0.00,,,0.00,Wunderground v.1.15,2013-08-22 05:50:00,
2013-08-22 02:00:00,64.3,64.3,29.92,ENE,61,0.0,0.0,100,0.00,,,0.00,Wunderground v.1.15,2013-08-22 06:00:00,
2013-08-22 02:10:00,64.3,64.3,29.92,ENE,61,0.0,0.0,100,0.00,,,0.00,Wunderground v.1.15,2013-08-22 06:10:00,
2013-08-22 02:20:00,64.0,64.0,29.92,ENE,61,0.0,0.0,100,0.00,,,0.00,Wunderground v.1.15,2013-08-22 06:20:00,
2013-08-22 02:30:00,64.0,64.0,29.92,ENE,61,0.0,0.0,100,0.00,,,0.00,Wunderground v.1.15,2013-08-22 06:30:00,
2013-08-22 02:40:00,64.0,64.0,29.92,ENE,61,0.0,0.0,100,0.00,,,0.00,Wunderground v.1.15,2013-08-22 06:40:00,
2013-08-22 02:50:00,64.0,64.0,29.92,ENE,61,0.0,0.0,100,0.00,,,0.00,Wunderground v.1.15,2013-08-22 06:50:00,
2013-08-22 03:00:00,63.9,63.9,29.92,ENE,61,0.0,0.0,100,0.00,,,0.00,Wunderground v.1.15,2013-08-22 07:00:00,
2013-08-22 03:10:00,64.2,64.2,29.91,ENE,61,0.0,0.0,100,0.00,,,0.00,Wunderground v.1.15,2013-08-22 07:10:00,
2013-08-22 03:20:00,64.3,64.3,29.91,ENE,61,0.0,0.0,100,0.00,,,0.00,Wunderground v.1.15,2013-08-22 07:20:00,
2013-08-22 03:30:00,63.9,63.9,29.91,ENE,61,0.0,0.0,100,0.00,,,0.00,Wunderground v.1.15,2013-08-22 07:30:00,
2013-08-22 03:40:00,63.9,63.9,29.91,ENE,61,0.0,0.0,100,0.00,,,0.00,Wunderground v.1.15,2013-08-22 07:40:00,
2013-08-22 03:50:00,63.9,63.9,29.91,ENE,61,0.0,0.0,100,0.00,,,0.00,Wunderground v.1.15,2013-08-22 07:50:00,
2013-08-22 04:00:00,63.9,63.9,29.90,ENE,61,0.0,0.0,100,0.00,,,0.00,Wunderground v.1.15,2013-08-22 08:00:00,
2013-08-22 04:10:00,64.0,64.0,29.90,East,88,0.0,0.0,100,0.00,,,0.00,Wunderground v.1.15,2013-08-22 08:10:00,
2013-08-22 04:20:00,63.9,63.9,29.90,East,88,0.0,0.0,100,0.00,,,0.00,Wunderground v.1.15,2013-08-22 08:20:00,
2013-08-22 04:30:00,64.3,64.3,29.90,East,88,0.0,0.0,100,0.00,,,0.00,Wunderground v.1.15,2013-08-22 08:30:00,
2013-08-22 04:40:00,64.5,64.5,29.89,East,88,0.0,0.0,100,0.00,,,0.00,Wunderground v.1.15,2013-08-22 08:40:00,
2013-08-22 04:50:00,64.3,64.3,29.89,East,88,0.0,0.0,100,0.00,,,0.00,Wunderground v.1.15,2013-08-22 08:50:00,
2013-08-22 04:55:00,64.3,64.3,29.90,East,88,0.0,0.0,100,0.00,,,0.00,Wunderground v.1.15,2013-08-22 08:55:00,
2013-08-22 05:05:00,64.5,64.5,29.89,East,88,0.0,0.0,100,0.00,,,0.00,Wunderground v.1.15,2013-08-22 09:05:00,
2013-08-22 05:15:00,64.5,64.5,29.89,East,88,0.0,0.0,100,0.00,,,0.00,Wunderground v.1.15,2013-08-22 09:15:00,
2013-08-22 05:20:00,64.5,64.5,29.89,East,88,0.0,0.0,100,0.00,,,0.00,Wunderground v.1.15,2013-08-22 09:20:00,
2013-08-22 05:30:00,64.3,64.3,29.90,East,88,0.0,0.0,100,0.00,,,0.00,Wunderground v.1.15,2013-08-22 09:30:00,
2013-08-22 05:40:00,64.3,64.3,29.89,East,88,0.0,0.0,100,0.00,,,0.00,Wunderground v.1.15,2013-08-22 09:40:00,
2013-08-22 05:50:00,64.3,64.3,29.89,East,88,0.0,0.0,100,0.00,,,0.00,Wunderground v.1.15,2013-08-22 09:50:00,
2013-08-22 06:00:00,64.2,64.2,29.89,East,88,0.0,0.0,100,0.00,,,0.00,Wunderground v.1.15,2013-08-22 10:00:00,
2013-08-22 06:10:00,64.2,64.2,29.89,East,88,0.0,0.0,100,0.00,,,0.00,Wunderground v.1.15,2013-08-22 10:10:00,
2013-08-22 06:20:00,64.0,64.0,29.90,East,88,0.0,0.0,100,0.00,,,0.00,Wunderground v.1.15,2013-08-22 10:20:00,
2013-08-22 06:30:00,63.7,63.7,29.90,East,88,0.0,0.0,100,0.00,,,0.00,Wunderground v.1.15,2013-08-22 10:30:00,
2013-08-22 06:40:00,63.5,63.5,29.90,East,88,0.0,0.0,100,0.00,,,0.00,Wunderground v.1.15,2013-08-22 10:40:00,
2013-08-22 06:50:00,63.7,63.7,29.90,East,88,0.0,0.0,100,0.00,,,0.00,Wunderground v.1.15,2013-08-22 10:50:00,
2013-08-22 08:30:00,64.2,63.9,29.92,East,88,0.0,0.0,99,0.00,,,0.00,Wunderground v.1.15,2013-08-22 12:30:00,
2013-08-22 08:40:00,64.2,63.9,29.92,East,88,0.0,0.0,99,0.00,,,0.00,Wunderground v.1.15,2013-08-22 12:40:00,
2013-08-22 08:50:00,64.5,64.2,29.92,East,88,0.0,0.0,99,0.00,,,0.00,Wunderground v.1.15,2013-08-22 12:50:00,
2013-08-22 09:00:00,64.7,64.4,29.92,East,88,0.0,0.0,99,0.00,,,0.00,Wunderground v.1.15,2013-08-22 13:00:00,
2013-08-22 09:05:00,64.7,64.4,29.92,East,88,0.0,0.0,99,0.00,,,0.00,Wunderground v.1.15,2013-08-22 13:05:00,
2013-08-22 09:10:00,64.8,64.5,29.92,East,88,0.0,0.0,99,0.00,,,0.00,Wunderground v.1.15,2013-08-22 13:10:00,
2013-08-22 09:20:00,65.3,65.0,29.92,East,88,0.0,0.0,99,0.00,,,0.00,Wunderground v.1.15,2013-08-22 13:20:00,
2013-08-22 09:30:00,65.8,65.5,29.92,East,88,0.0,0.0,99,0.00,,,0.00,Wunderground v.1.15,2013-08-22 13:30:00,
2013-08-22 09:40:00,66.3,66.0,29.92,East,88,0.0,0.0,99,0.00,,,0.00,Wunderground v.1.15,2013-08-22 13:40:00,
2013-08-22 09:50:00,66.9,66.3,29.92,East,86,0.0,0.0,98,0.00,,,0.00,Wunderground v.1.15,2013-08-22 13:50:00,
2013-08-22 09:55:00,67.3,66.7,29.92,East,86,0.0,0.0,98,0.00,,,0.00,Wunderground v.1.15,2013-08-22 13:55:00,
2013-08-22 10:00:00,67.4,66.8,29.92,East,86,0.0,0.0,98,0.00,,,0.00,Wunderground v.1.15,2013-08-22 14:00:00,
2013-08-22 10:10:00,67.6,66.7,29.92,East,86,0.0,0.0,97,0.00,,,0.00,Wunderground v.1.15,2013-08-22 14:10:00,
2013-08-22 10:20:00,67.9,66.7,29.92,East,86,0.0,0.0,96,0.00,,,0.00,Wunderground v.1.15,2013-08-22 14:20:00,
2013-08-22 10:30:00,68.3,66.8,29.92,East,86,0.0,0.0,95,0.00,,,0.00,Wunderground v.1.15,2013-08-22 14:30:00,
2013-08-22 10:40:00,69.1,66.0,29.91,East,86,0.0,0.0,90,0.00,,,0.00,Wunderground v.1.15,2013-08-22 14:40:00,
2013-08-22 10:50:00,69.9,66.5,29.91,East,86,0.0,0.0,89,0.00,,,0.00,Wunderground v.1.15,2013-08-22 14:50:00,
2013-08-22 11:00:00,70.3,65.9,29.91,East,86,0.0,0.0,86,0.00,,,0.00,Wunderground v.1.15,2013-08-22 15:00:00,
2013-08-22 11:10:00,70.8,66.1,29.91,East,86,0.0,0.0,85,0.00,,,0.00,Wunderground v.1.15,2013-08-22 15:10:00,
2013-08-22 11:20:00,70.9,66.2,29.90,East,86,0.0,0.0,85,0.00,,,0.00,Wunderground v.1.15,2013-08-22 15:20:00,
2013-08-22 11:30:00,71.6,65.8,29.90,East,86,0.0,0.0,82,0.00,,,0.00,Wunderground v.1.15,2013-08-22 15:30:00,
2013-08-22 11:40:00,72.0,65.5,29.90,East,86,0.0,0.0,80,0.00,,,0.00,Wunderground v.1.15,2013-08-22 15:40:00,
2013-08-22 11:50:00,73.0,65.7,29.90,ENE,57,0.0,0.0,78,0.00,,,0.00,Wunderground v.1.15,2013-08-22 15:50:00,
2013-08-22 11:55:00,73.3,62.9,29.90,ENE,77,0.0,0.0,70,0.00,,,0.00,Wunderground v.1.15,2013-08-22 15:55:00,
2013-08-22 12:00:00,73.7,67.5,29.89,ENE,77,0.0,0.0,81,0.00,,,0.00,Wunderground v.1.15,2013-08-22 16:00:00,
2013-08-22 12:10:00,74.2,65.4,29.89,ENE,77,0.0,0.0,74,0.00,,,0.00,Wunderground v.1.15,2013-08-22 16:10:00,
2013-08-22 12:20:00,74.9,66.8,29.89,ENE,77,0.0,0.0,76,0.00,,,0.00,Wunderground v.1.15,2013-08-22 16:20:00,
2013-08-22 12:30:00,76.0,65.1,29.88,NE,49,0.0,0.0,69,0.00,,,0.00,Wunderground v.1.15,2013-08-22 16:30:00,
2013-08-22 12:40:00,77.0,66.9,29.88,NE,49,0.0,0.0,71,0.00,,,0.00,Wunderground v.1.15,2013-08-22 16:40:00,
2013-08-22 12:50:00,76.7,64.0,29.88,NE,49,0.0,0.0,65,0.00,,,0.00,Wunderground v.1.15,2013-08-22 16:50:00,
2013-08-22 13:00:00,76.5,66.4,29.87,NE,49,0.0,0.0,71,0.00,,,0.00,Wunderground v.1.15,2013-08-22 17:00:00,
2013-08-22 13:10:00,77.6,65.3,29.86,NE,49,0.0,0.0,66,0.00,,,0.00,Wunderground v.1.15,2013-08-22 17:10:00,
2013-08-22 13:20:00,77.2,64.5,29.86,NE,49,0.0,0.0,65,0.00,,,0.00,Wunderground v.1.15,2013-08-22 17:20:00,
2013-08-22 13:30:00,76.5,67.2,29.87,ENE,70,0.0,1.0,73,0.00,,,0.00,Wunderground v.1.15,2013-08-22 17:30:00,
2013-08-22 13:40:00,75.6,67.5,29.86,NNE,13,0.0,0.0,76,0.00,,,0.00,Wunderground v.1.15,2013-08-22 17:40:00,
2013-08-22 13:50:00,76.0,68.3,29.85,WNW,292,0.0,0.0,77,0.00,,,0.00,Wunderground v.1.15,2013-08-22 17:50:00,
2013-08-22 13:55:00,76.0,69.4,29.85,WNW,290,0.0,0.0,80,0.00,,,0.00,Wunderground v.1.15,2013-08-22 17:55:00,
2013-08-22 14:00:00,75.6,69.0,29.85,WNW,290,0.0,0.0,80,0.00,,,0.00,Wunderground v.1.15,2013-08-22 18:00:00,
2013-08-22 14:10:00,74.7,69.5,29.85,WNW,290,0.0,0.0,84,0.27,,,0.03,Wunderground v.1.15,2013-08-22 18:10:00,
2013-08-22 14:20:00,72.8,69.4,29.85,NW,313,0.0,0.0,89,0.52,,,0.08,Wunderground v.1.15,2013-08-22 18:20:00,
2013-08-22 14:30:00,70.3,65.9,29.86,SSW,204,1.0,1.0,86,0.26,,,0.26,Wunderground v.1.15,2013-08-22 18:30:00,
2013-08-22 14:40:00,67.8,65.1,29.86,SSE,161,1.0,1.0,91,0.79,,,0.57,Wunderground v.1.15,2013-08-22 18:40:00,
2013-08-22 14:50:00,66.8,65.0,29.86,ENE,66,0.0,1.0,94,0.14,,,0.63,Wunderground v.1.15,2013-08-22 18:50:00,
2013-08-22 15:00:00,66.6,65.4,29.87,ENE,66,0.0,0.0,96,0.04,,,0.63,Wunderground v.1.15,2013-08-22 19:00:00,
2013-08-22 15:10:00,67.1,66.2,29.88,ENE,66,0.0,0.0,97,0.00,,,0.63,Wunderground v.1.15,2013-08-22 19:10:00,
2013-08-22 15:20:00,67.1,66.2,29.87,ENE,66,0.0,0.0,97,0.00,,,0.63,Wunderground v.1.15,2013-08-22 19:20:00,
2013-08-22 15:25:00,66.9,66.0,29.87,ENE,66,0.0,0.0,97,0.00,,,0.63,Wunderground v.1.15,2013-08-22 19:25:00,
2013-08-22 15:35:00,67.1,66.2,29.87,NNW,331,0.0,0.0,97,0.00,,,0.63,Wunderground v.1.15,2013-08-22 19:35:00,
2013-08-22 15:45:00,67.9,67.3,29.85,NNW,331,0.0,0.0,98,0.00,,,0.63,Wunderground v.1.15,2013-08-22 19:45:00,
2013-08-22 15:50:00,68.6,68.0,29.85,NNW,331,0.0,0.0,98,0.00,,,0.63,Wunderground v.1.15,2013-08-22 19:50:00,
2013-08-22 16:00:00,69.8,69.2,29.83,NNW,331,0.0,0.0,98,0.00,,,0.63,Wunderground v.1.15,2013-08-22 20:00:00,
2013-08-22 16:10:00,70.3,69.4,29.83,NNW,331,0.0,0.0,97,0.00,,,0.63,Wunderground v.1.15,2013-08-22 20:10:00,
2013-08-22 16:20:00,70.6,69.4,29.83,NNW,331,0.0,0.0,96,0.00,,,0.63,Wunderground v.1.15,2013-08-22 20:20:00,
2013-08-22 16:30:00,70.9,69.7,29.82,NNW,331,0.0,0.0,96,0.00,,,0.63,Wunderground v.1.15,2013-08-22 20:30:00,
2013-08-22 16:40:00,70.8,69.0,29.82,NNW,331,0.0,0.0,94,0.00,,,0.63,Wunderground v.1.15,2013-08-22 20:40:00,
2013-08-22 16:50:00,71.3,69.8,29.81,NNW,331,0.0,0.0,95,0.00,,,0.63,Wunderground v.1.15,2013-08-22 20:50:00,
2013-08-22 17:00:00,71.6,70.1,29.81,NNW,331,0.0,0.0,95,0.00,,,0.63,Wunderground v.1.15,2013-08-22 21:00:00,
2013-08-22 17:10:00,71.5,69.4,29.81,NNW,331,0.0,0.0,93,0.00,,,0.63,Wunderground v.1.15,2013-08-22 21:10:00,
2013-08-22 17:15:00,71.5,69.1,29.80,NNW,331,0.0,0.0,92,0.00,,,0.63,Wunderground v.1.15,2013-08-22 21:15:00,
2013-08-22 17:25:00,71.6,68.8,29.81,NNW,331,0.0,0.0,91,0.00,,,0.63,Wunderground v.1.15,2013-08-22 21:25:00,
2013-08-22 17:35:00,71.8,69.7,29.81,NNW,331,0.0,0.0,93,0.00,,,0.63,Wunderground v.1.15,2013-08-22 21:35:00,
2013-08-22 17:40:00,71.8,69.3,29.80,NNW,331,0.0,0.0,92,0.00,,,0.63,Wunderground v.1.15,2013-08-22 21:40:00,
2013-08-22 17:50:00,71.6,69.2,29.81,NNW,331,0.0,0.0,92,0.00,,,0.63,Wunderground v.1.15,2013-08-22 21:50:00,
2013-08-22 18:00:00,71.5,69.1,29.81,NNW,331,0.0,0.0,92,0.00,,,0.63,Wunderground v.1.15,2013-08-22 22:00:00,
2013-08-22 18:10:00,71.3,68.9,29.81,NNW,331,0.0,0.0,92,0.00,,,0.63,Wunderground v.1.15,2013-08-22 22:10:00,
2013-08-22 18:20:00,71.1,69.0,29.81,NNW,331,0.0,0.0,93,0.00,,,0.63,Wunderground v.1.15,2013-08-22 22:20:00,
2013-08-22 18:30:00,71.3,69.5,29.81,NNW,331,0.0,0.0,94,0.00,,,0.63,Wunderground v.1.15,2013-08-22 22:30:00,
2013-08-22 18:40:00,71.1,69.6,29.80,NNW,331,0.0,0.0,95,0.00,,,0.63,Wunderground v.1.15,2013-08-22 22:40:00,
2013-08-22 18:50:00,71.1,69.9,29.81,NNW,331,0.0,0.0,96,0.00,,,0.63,Wunderground v.1.15,2013-08-22 22:50:00,
2013-08-22 19:00:00,70.9,69.7,29.80,NNW,331,0.0,0.0,96,0.00,,,0.63,Wunderground v.1.15,2013-08-22 23:00:00,
2013-08-22 19:05:00,70.9,69.7,29.80,NNW,331,0.0,0.0,96,0.00,,,0.63,Wunderground v.1.15,2013-08-22 23:05:00,
2013-08-22 19:15:00,71.1,69.9,29.80,NNW,331,0.0,0.0,96,0.00,,,0.63,Wunderground v.1.15,2013-08-22 23:15:00,
2013-08-22 19:20:00,71.1,69.9,29.80,NNW,331,0.0,0.0,96,0.00,,,0.63,Wunderground v.1.15,2013-08-22 23:20:00,
2013-08-22 19:30:00,70.9,69.7,29.81,NNW,331,0.0,0.0,96,0.00,,,0.63,Wunderground v.1.15,2013-08-22 23:30:00,
2013-08-22 19:40:00,70.8,69.6,29.81,NNW,331,0.0,0.0,96,0.00,,,0.63,Wunderground v.1.15,2013-08-22 23:40:00,
2013-08-22 19:50:00,70.4,69.2,29.80,NNW,331,0.0,0.0,96,0.00,,,0.63,Wunderground v.1.15,2013-08-22 23:50:00,
2013-08-22 20:00:00,69.9,68.7,29.80,NNW,331,0.0,0.0,96,0.00,,,0.63,Wunderground v.1.15,2013-08-23 00:00:00,
2013-08-22 20:10:00,69.6,68.4,29.81,NNW,331,0.0,0.0,96,0.00,,,0.63,Wunderground v.1.15,2013-08-23 00:10:00,
2013-08-22 20:20:00,69.1,67.9,29.81,NNW,331,0.0,0.0,96,0.00,,,0.63,Wunderground v.1.15,2013-08-23 00:20:00,
2013-08-22 20:30:00,68.8,67.6,29.81,NNW,331,0.0,0.0,96,0.00,,,0.63,Wunderground v.1.15,2013-08-23 00:30:00,
2013-08-22 20:40:00,68.6,67.4,29.81,NNW,331,0.0,0.0,96,0.00,,,0.63,Wunderground v.1.15,2013-08-23 00:40:00,
2013-08-22 20:50:00,68.1,66.9,29.82,NNW,331,0.0,0.0,96,0.00,,,0.63,Wunderground v.1.15,2013-08-23 00:50:00,
2013-08-22 21:00:00,67.8,66.6,29.82,NNW,331,0.0,0.0,96,0.00,,,0.63,Wunderground v.1.15,2013-08-23 01:00:00,
2013-08-22 21:10:00,67.4,66.5,29.81,NNW,331,0.0,0.0,97,0.00,,,0.63,Wunderground v.1.15,2013-08-23 01:10:00,
2013-08-22 21:20:00,66.9,66.0,29.82,NNW,331,0.0,0.0,97,0.00,,,0.63,Wunderground v.1.15,2013-08-23 01:20:00,
2013-08-22 21:25:00,66.8,65.9,29.82,NNW,331,0.0,0.0,97,0.00,,,0.63,Wunderground v.1.15,2013-08-23 01:25:00,
2013-08-22 21:35:00,66.6,66.0,29.82,NNW,331,0.0,0.0,98,0.00,,,0.63,Wunderground v.1.15,2013-08-23 01:35:00,
2013-08-22 21:45:00,66.6,66.0,29.83,NNW,331,0.0,0.0,98,0.00,,,0.63,Wunderground v.1.15,2013-08-23 01:45:00,
2013-08-22 21:55:00,66.6,66.0,29.83,NNW,331,0.0,0.0,98,0.00,,,0.63,Wunderground v.1.15,2013-08-23 01:55:00,
2013-08-22 22:05:00,66.6,66.3,29.84,NNW,331,0.0,0.0,99,0.00,,,0.63,Wunderground v.1.15,2013-08-23 02:05:00,
2013-08-22 22:10:00,66.4,66.1,29.83,NNW,331,0.0,0.0,99,0.00,,,0.63,Wunderground v.1.15,2013-08-23 02:10:00,
2013-08-22 22:20:00,66.3,66.0,29.83,NNW,331,0.0,0.0,99,0.00,,,0.63,Wunderground v.1.15,2013-08-23 02:20:00,
2013-08-22 22:30:00,66.1,65.8,29.83,NNW,331,0.0,0.0,99,0.00,,,0.63,Wunderground v.1.15,2013-08-23 02:30:00,
2013-08-22 22:40:00,65.8,65.5,29.83,NNW,331,0.0,0.0,99,0.00,,,0.63,Wunderground v.1.15,2013-08-23 02:40:00,
2013-08-22 22:50:00,66.0,65.7,29.83,NNW,331,0.0,0.0,99,0.00,,,0.63,Wunderground v.1.15,2013-08-23 02:50:00,
2013-08-22 23:00:00,66.1,65.8,29.84,NNW,331,0.0,0.0,99,0.00,,,0.63,Wunderground v.1.15,2013-08-23 03:00:00,
2013-08-22 23:10:00,66.1,65.8,29.82,NNW,331,0.0,0.0,99,0.00,,,0.63,Wunderground v.1.15,2013-08-23 03:10:00,
2013-08-22 23:20:00,66.1,65.8,29.82,NNW,331,0.0,0.0,99,0.00,,,0.63,Wunderground v.1.15,2013-08-23 03:20:00,
2013-08-22 23:25:00,66.1,65.8,29.82,NNW,331,0.0,0.0,99,0.00,,,0.63,Wunderground v.1.15,2013-08-23 03:25:00,
2013-08-22 23:35:00,66.0,65.7,29.82,NNW,331,0.0,0.0,99,0.00,,,0.63,Wunderground v.1.15,2013-08-23 03:35:00,
2013-08-22 23:45:00,65.8,65.5,29.82,NNW,331,0.0,0.0,99,0.00,,,0.63,Wunderground v.1.15,2013-08-23 03:45:00,
2013-08-22 23:55:00,65.2,64.9,29.82,NNW,331,0.0,0.0,99,0.00,,,0.63,Wunderground v.1.15,2013-08-23 03:55:00,